Impacts METAR Board INFO
IDs:

KFLL - Ft Lauderdale-Hollyw, FL, US

Updated at: 0332 UTC 22 Nov 2017
Potential Impact None Slight Moderate High
Time21/15Z 21/16Z 21/17Z 21/18Z 21/19Z 21/20Z 21/21Z 21/22Z 21/23Z 22/00Z 22/01Z 22/02Z 22/03Z
VIS10 10 10 10 10 10 10 10 10 10 10 10 10
CIG-- -- -- 30 -- -- 80 250 -- -- -- -- --
CoverFEWFEWSCTBKNSCTSCTBKNBKNSCTSCTSCTFEWFEW
FltCatVFRVFRVFRMVFRVFRVFRVFRVFRVFRVFRVFRVFRVFR
WX--------------------------
WDir1801401401501301301301401501401401600
WSpd6 8 8 5 10 8 8 9 6 5 6 4 0
WGst-- -- -- -- -- -- -- -- -- -- -- -- --
Raw hourly METARs
KFLL 211453Z 18006KT 10SM FEW025 FEW085 26/21 A3000 RMK AO2 SLP157 T02610206 51009
KFLL 211553Z 14008KT 10SM FEW025 FEW100 27/21 A2999 RMK AO2 SLP156 T02670206
KFLL 211653Z 14008KT 10SM SCT030 SCT120 27/21 A2997 RMK AO2 SLP149 T02670206
KFLL 211753Z 15005KT 10SM BKN030 BKN120 27/21 A2994 RMK AO2 SLP137 T02720206 10278 20217 58021
KFLL 211853Z 13010KT 10SM FEW030 SCT050 SCT120 27/21 A2992 RMK AO2 SLP130 T02720211
KFLL 211953Z 13008KT 10SM FEW030 SCT070 28/21 A2990 RMK AO2 SLP126 T02780211
KFLL 212053Z 13008KT 10SM FEW030 BKN080 BKN100 26/21 A2992 RMK AO2 SLP130 T02610211 55007
KFLL 212153Z 14009KT 10SM FEW030 SCT065 BKN250 26/22 A2991 RMK AO2 SLP128 T02610217
KFLL 212253Z 15006KT 10SM FEW030 SCT065 26/22 A2991 RMK AO2 SLP129 T02560217
KFLL 212353Z 14005KT 10SM FEW030 SCT065 25/22 A2992 RMK AO2 SLP130 T02500217 10278 20250 53000
KFLL 220053Z 14006KT 10SM FEW030 SCT065 25/22 A2991 RMK AO2 SLP129 T02500222
KFLL 220153Z 16004KT 10SM FEW030 FEW065 25/22 A2992 RMK AO2 SLP132 T02500217
KFLL 220253Z 00000KT 10SM FEW025 25/22 A2994 RMK AO2 SLP138 T02500217 53008